sensor_id;sensor_type;location;lat;lon;timestamp;pressure;altitude;pressure_sealevel;temperature;humidity
19751;BME280;4663;49.120;9.730;2023-03-20T00:03:41;98270.31;;;3.54;98.57
19751;BME280;4663;49.120;9.730;2023-03-20T00:06:21;98259.69;;;3.74;97.27
19751;BME280;4663;49.120;9.730;2023-03-20T00:08:48;98265.56;;;3.67;96.79
19751;BME280;4663;49.120;9.730;2023-03-20T00:13:57;98267.97;;;3.39;97.51
19751;BME280;4663;49.120;9.730;2023-03-20T00:16:28;98259.09;;;3.39;98.39
19751;BME280;4663;49.120;9.730;2023-03-20T00:18:54;98250.47;;;3.47;97.85
19751;BME280;4663;49.120;9.730;2023-03-20T00:21:21;98254.56;;;2.98;98.87
19751;BME280;4663;49.120;9.730;2023-03-20T00:23:46;98253.41;;;3.22;98.84
19751;BME280;4663;49.120;9.730;2023-03-20T00:26:16;98265.28;;;3.08;99.32
19751;BME280;4663;49.120;9.730;2023-03-20T00:28:45;98261.69;;;3.19;98.71
19751;BME280;4663;49.120;9.730;2023-03-20T00:31:27;98264.47;;;3.17;98.15
19751;BME280;4663;49.120;9.730;2023-03-20T00:33:55;98268.13;;;3.16;97.47
19751;BME280;4663;49.120;9.730;2023-03-20T00:36:22;98269.91;;;3.06;98.61
19751;BME280;4663;49.120;9.730;2023-03-20T00:38:47;98271.34;;;3.10;99.44
19751;BME280;4663;49.120;9.730;2023-03-20T00:43:48;98270.91;;;3.67;95.50
19751;BME280;4663;49.120;9.730;2023-03-20T00:46:15;98278.38;;;3.42;96.14
19751;BME280;4663;49.120;9.730;2023-03-20T00:48:41;98267.97;;;3.70;94.67
19751;BME280;4663;49.120;9.730;2023-03-20T00:51:08;98268.13;;;3.69;95.14
19751;BME280;4663;49.120;9.730;2023-03-20T00:53:34;98277.53;;;3.73;95.14
19751;BME280;4663;49.120;9.730;2023-03-20T00:55:59;98270.22;;;3.65;95.07
19751;BME280;4663;49.120;9.730;2023-03-20T00:58:25;98266.41;;;3.58;95.81
19751;BME280;4663;49.120;9.730;2023-03-20T01:00:51;98269.41;;;3.75;95.22
19751;BME280;4663;49.120;9.730;2023-03-20T01:03:22;98256.72;;;3.77;93.75
19751;BME280;4663;49.120;9.730;2023-03-20T01:05:49;98269.66;;;3.72;94.18
19751;BME280;4663;49.120;9.730;2023-03-20T01:08:18;98273.94;;;3.53;95.50
19751;BME280;4663;49.120;9.730;2023-03-20T01:10:45;98282.00;;;3.63;94.87
19751;BME280;4663;49.120;9.730;2023-03-20T01:13:21;98275.56;;;3.65;94.40
19751;BME280;4663;49.120;9.730;2023-03-20T01:15:47;98277.91;;;3.59;95.56
19751;BME280;4663;49.120;9.730;2023-03-20T01:18:15;98262.94;;;3.77;94.84
19751;BME280;4663;49.120;9.730;2023-03-20T01:20:41;98261.84;;;3.90;93.24
19751;BME280;4663;49.120;9.730;2023-03-20T01:23:07;98264.38;;;3.91;93.66
19751;BME280;4663;49.120;9.730;2023-03-20T01:25:33;98267.91;;;4.02;93.51
19751;BME280;4663;49.120;9.730;2023-03-20T01:27:58;98266.94;;;4.03;93.35
19751;BME280;4663;49.120;9.730;2023-03-20T01:30:28;98271.69;;;4.09;93.90
19751;BME280;4663;49.120;9.730;2023-03-20T01:32:54;98269.19;;;3.98;95.20
19751;BME280;4663;49.120;9.730;2023-03-20T01:35:25;98273.81;;;4.05;94.90
19751;BME280;4663;49.120;9.730;2023-03-20T01:37:52;98283.13;;;4.21;94.79
19751;BME280;4663;49.120;9.730;2023-03-20T01:40:36;98283.00;;;4.23;94.12
19751;BME280;4663;49.120;9.730;2023-03-20T01:43:13;98283.97;;;4.12;94.10
19751;BME280;4663;49.120;9.730;2023-03-20T01:48:19;98288.47;;;4.21;95.44
19751;BME280;4663;49.120;9.730;2023-03-20T01:50:46;98291.44;;;4.28;94.47
19751;BME280;4663;49.120;9.730;2023-03-20T01:53:19;98288.63;;;4.39;94.04
19751;BME280;4663;49.120;9.730;2023-03-20T01:55:47;98296.81;;;4.47;93.85
19751;BME280;4663;49.120;9.730;2023-03-20T01:58:19;98288.75;;;4.28;94.24
19751;BME280;4663;49.120;9.730;2023-03-20T02:00:46;98288.09;;;4.45;93.90
19751;BME280;4663;49.120;9.730;2023-03-20T02:03:14;98292.31;;;4.38;93.74
19751;BME280;4663;49.120;9.730;2023-03-20T02:05:41;98297.22;;;4.33;93.55
19751;BME280;4663;49.120;9.730;2023-03-20T02:08:19;98298.91;;;4.44;93.78
19751;BME280;4663;49.120;9.730;2023-03-20T02:10:47;98297.94;;;4.55;92.60
19751;BME280;4663;49.120;9.730;2023-03-20T02:13:14;98308.78;;;4.63;93.17
19751;BME280;4663;49.120;9.730;2023-03-20T02:18:28;98313.84;;;4.46;93.18
19751;BME280;4663;49.120;9.730;2023-03-20T02:37:48;98318.78;;;4.61;91.65
19751;BME280;4663;49.120;9.730;2023-03-20T02:46:11;98316.53;;;4.66;93.28
19751;BME280;4663;49.120;9.730;2023-03-20T02:51:21;98321.28;;;4.53;94.16
19751;BME280;4663;49.120;9.730;2023-03-20T02:59:40;98317.06;;;4.60;92.80
19751;BME280;4663;49.120;9.730;2023-03-20T03:05:02;98324.53;;;4.76;93.60
19751;BME280;4663;49.120;9.730;2023-03-20T03:07:31;98326.63;;;4.72;92.60
19751;BME280;4663;49.120;9.730;2023-03-20T03:10:21;98327.34;;;4.45;95.45
19751;BME280;4663;49.120;9.730;2023-03-20T03:12:48;98325.69;;;4.73;94.89
19751;BME280;4663;49.120;9.730;2023-03-20T03:15:21;98327.34;;;4.75;94.74
19751;BME280;4663;49.120;9.730;2023-03-20T03:17:49;98316.25;;;4.79;94.74
19751;BME280;4663;49.120;9.730;2023-03-20T03:20:24;98326.34;;;4.76;95.52
19751;BME280;4663;49.120;9.730;2023-03-20T03:22:52;98314.97;;;4.93;94.56
19751;BME280;4663;49.120;9.730;2023-03-20T03:25:20;98315.94;;;4.92;94.56
19751;BME280;4663;49.120;9.730;2023-03-20T03:27:53;98318.47;;;4.94;93.75
19751;BME280;4663;49.120;9.730;2023-03-20T03:30:24;98320.59;;;4.90;94.41
19751;BME280;4663;49.120;9.730;2023-03-20T03:35:41;98320.72;;;4.98;94.42
19751;BME280;4663;49.120;9.730;2023-03-20T03:41:09;98315.78;;;5.04;94.00
19751;BME280;4663;49.120;9.730;2023-03-20T03:46:21;98322.97;;;5.03;93.53
19751;BME280;4663;49.120;9.730;2023-03-20T03:48:52;98323.25;;;5.00;94.27
19751;BME280;4663;49.120;9.730;2023-03-20T03:51:22;98319.88;;;4.68;95.40
19751;BME280;4663;49.120;9.730;2023-03-20T03:53:56;98330.03;;;4.94;94.50
19751;BME280;4663;49.120;9.730;2023-03-20T03:56:25;98329.88;;;4.96;94.50
19751;BME280;4663;49.120;9.730;2023-03-20T03:58:54;98342.53;;;4.94;94.07
19751;BME280;4663;49.120;9.730;2023-03-20T04:01:22;98335.09;;;4.97;94.29
19751;BME280;4663;49.120;9.730;2023-03-20T04:03:52;98342.41;;;4.95;94.12
19751;BME280;4663;49.120;9.730;2023-03-20T04:06:20;98340.44;;;4.97;94.11
19751;BME280;4663;49.120;9.730;2023-03-20T04:08:46;98338.47;;;5.19;93.18
19751;BME280;4663;49.120;9.730;2023-03-20T04:11:14;98333.97;;;5.00;93.97
19751;BME280;4663;49.120;9.730;2023-03-20T04:13:40;98339.03;;;4.93;94.36
19751;BME280;4663;49.120;9.730;2023-03-20T04:16:11;98343.94;;;4.88;95.15
19751;BME280;4663;49.120;9.730;2023-03-20T04:18:37;98345.81;;;5.07;93.86
19751;BME280;4663;49.120;9.730;2023-03-20T04:21:03;98343.13;;;5.17;92.77
19751;BME280;4663;49.120;9.730;2023-03-20T04:23:28;98346.78;;;5.16;93.18
19751;BME280;4663;49.120;9.730;2023-03-20T04:25:54;98337.31;;;5.22;92.17
19751;BME280;4663;49.120;9.730;2023-03-20T04:28:19;98342.53;;;5.04;92.62
19751;BME280;4663;49.120;9.730;2023-03-20T04:30:54;98355.22;;;4.72;94.91
19751;BME280;4663;49.120;9.730;2023-03-20T04:33:20;98355.91;;;4.84;94.94
19751;BME280;4663;49.120;9.730;2023-03-20T04:35:45;98347.75;;;4.95;94.46
19751;BME280;4663;49.120;9.730;2023-03-20T04:38:11;98348.63;;;5.06;93.91
19751;BME280;4663;49.120;9.730;2023-03-20T04:40:36;98343.84;;;5.09;93.00
19751;BME280;4663;49.120;9.730;2023-03-20T04:43:02;98345.53;;;5.01;93.31
19751;BME280;4663;49.120;9.730;2023-03-20T04:45:27;98339.31;;;5.00;93.63
19751;BME280;4663;49.120;9.730;2023-03-20T04:47:53;98338.59;;;5.18;92.36
19751;BME280;4663;49.120;9.730;2023-03-20T04:50:18;98335.66;;;5.21;92.16
19751;BME280;4663;49.120;9.730;2023-03-20T04:52:44;98344.09;;;5.16;91.77
19751;BME280;4663;49.120;9.730;2023-03-20T04:55:09;98342.41;;;5.05;92.53
19751;BME280;4663;49.120;9.730;2023-03-20T04:57:34;98347.22;;;4.92;93.30
19751;BME280;4663;49.120;9.730;2023-03-20T05:00:00;98340.16;;;5.01;92.59
19751;BME280;4663;49.120;9.730;2023-03-20T05:02:25;98345.53;;;4.91;93.51
19751;BME280;4663;49.120;9.730;2023-03-20T05:04:51;98343.00;;;4.89;93.64
19751;BME280;4663;49.120;9.730;2023-03-20T05:07:16;98335.50;;;4.93;92.84
19751;BME280;4663;49.120;9.730;2023-03-20T05:09:42;98344.97;;;5.07;92.58
19751;BME280;4663;49.120;9.730;2023-03-20T05:12:11;98344.97;;;5.07;92.19
19751;BME280;4663;49.120;9.730;2023-03-20T05:14:36;98357.91;;;5.02;92.80
19751;BME280;4663;49.120;9.730;2023-03-20T05:17:02;98360.00;;;4.88;93.54
19751;BME280;4663;49.120;9.730;2023-03-20T05:19:28;98371.69;;;4.97;93.33
19751;BME280;4663;49.120;9.730;2023-03-20T05:21:53;98364.25;;;4.81;94.16
19751;BME280;4663;49.120;9.730;2023-03-20T05:24:18;98370.03;;;4.96;93.09
19751;BME280;4663;49.120;9.730;2023-03-20T05:26:45;98373.81;;;4.73;94.45
19751;BME280;4663;49.120;9.730;2023-03-20T05:29:10;98371.56;;;4.69;94.66
19751;BME280;4663;49.120;9.730;2023-03-20T05:31:35;98369.88;;;4.88;93.76
19751;BME280;4663;49.120;9.730;2023-03-20T05:34:01;98368.75;;;4.80;94.26
19751;BME280;4663;49.120;9.730;2023-03-20T05:36:26;98376.50;;;4.83;94.22
19751;BME280;4663;49.120;9.730;2023-03-20T05:38:52;98379.03;;;5.05;92.64
19751;BME280;4663;49.120;9.730;2023-03-20T05:41:17;98383.81;;;4.91;93.55
19751;BME280;4663;49.120;9.730;2023-03-20T05:43:42;98382.69;;;4.84;93.09
19751;BME280;4663;49.120;9.730;2023-03-20T05:46:08;98378.31;;;4.83;93.57
19751;BME280;4663;49.120;9.730;2023-03-20T05:48:33;98380.72;;;4.96;93.36
19751;BME280;4663;49.120;9.730;2023-03-20T05:50:58;98376.53;;;5.13;92.31
19751;BME280;4663;49.120;9.730;2023-03-20T05:53:24;98382.00;;;4.92;92.83
19751;BME280;4663;49.120;9.730;2023-03-20T05:55:49;98388.34;;;4.81;93.37
19751;BME280;4663;49.120;9.730;2023-03-20T05:58:15;98381.56;;;5.06;92.47
19751;BME280;4663;49.120;9.730;2023-03-20T06:00:40;98390.56;;;4.95;92.40
19751;BME280;4663;49.120;9.730;2023-03-20T06:03:06;98394.00;;;5.07;92.62
19751;BME280;4663;49.120;9.730;2023-03-20T06:05:32;98386.34;;;4.93;92.86
19751;BME280;4663;49.120;9.730;2023-03-20T06:07:58;98394.25;;;4.94;93.11
19751;BME280;4663;49.120;9.730;2023-03-20T06:10:23;98394.53;;;5.11;92.80
19751;BME280;4663;49.120;9.730;2023-03-20T06:12:49;98399.31;;;4.97;93.05
19751;BME280;4663;49.120;9.730;2023-03-20T06:15:14;98399.59;;;5.04;93.04
19751;BME280;4663;49.120;9.730;2023-03-20T06:17:40;98407.38;;;5.17;92.97
19751;BME280;4663;49.120;9.730;2023-03-20T06:20:06;98395.66;;;5.18;91.96
19751;BME280;4663;49.120;9.730;2023-03-20T06:22:32;98398.34;;;5.28;92.13
19751;BME280;4663;49.120;9.730;2023-03-20T06:24:57;98394.25;;;5.24;92.38
19751;BME280;4663;49.120;9.730;2023-03-20T06:27:23;98395.53;;;5.20;91.70
19751;BME280;4663;49.120;9.730;2023-03-20T06:29:48;98403.66;;;5.48;91.68
19751;BME280;4663;49.120;9.730;2023-03-20T06:32:13;98398.72;;;5.53;90.85
19751;BME280;4663;49.120;9.730;2023-03-20T06:34:41;98408.28;;;5.56;91.20
19751;BME280;4663;49.120;9.730;2023-03-20T06:37:06;98403.91;;;5.65;90.78
19751;BME280;4663;49.120;9.730;2023-03-20T06:39:32;98399.78;;;5.80;90.44
19751;BME280;4663;49.120;9.730;2023-03-20T06:41:57;98393.88;;;5.76;90.05
19751;BME280;4663;49.120;9.730;2023-03-20T06:44:23;98392.47;;;5.82;90.50
19751;BME280;4663;49.120;9.730;2023-03-20T06:46:48;98402.03;;;5.85;90.21
19751;BME280;4663;49.120;9.730;2023-03-20T06:49:14;98400.03;;;5.87;89.72
19751;BME280;4663;49.120;9.730;2023-03-20T06:51:41;98399.75;;;5.90;89.64
19751;BME280;4663;49.120;9.730;2023-03-20T06:54:06;98400.16;;;5.95;88.68
19751;BME280;4663;49.120;9.730;2023-03-20T06:56:31;98408.59;;;6.00;88.30
19751;BME280;4663;49.120;9.730;2023-03-20T06:58:57;98403.72;;;5.86;88.63
19751;BME280;4663;49.120;9.730;2023-03-20T07:01:22;98405.31;;;6.07;88.42
19751;BME280;4663;49.120;9.730;2023-03-20T07:03:48;98404.81;;;5.93;88.74
19751;BME280;4663;49.120;9.730;2023-03-20T07:06:14;98399.38;;;6.13;88.79
19751;BME280;4663;49.120;9.730;2023-03-20T07:08:42;98409.28;;;6.02;88.74
19751;BME280;4663;49.120;9.730;2023-03-20T07:11:07;98409.69;;;6.08;89.00
19751;BME280;4663;49.120;9.730;2023-03-20T07:13:33;98400.78;;;6.17;88.10
19751;BME280;4663;49.120;9.730;2023-03-20T07:16:02;98401.44;;;6.19;88.25
19751;BME280;4663;49.120;9.730;2023-03-20T07:18:28;98399.66;;;6.38;88.44
19751;BME280;4663;49.120;9.730;2023-03-20T07:20:59;98401.34;;;6.39;87.80
19751;BME280;4663;49.120;9.730;2023-03-20T07:23:26;98401.97;;;6.61;87.11
19751;BME280;4663;49.120;9.730;2023-03-20T07:25:52;98413.53;;;6.61;87.53
19751;BME280;4663;49.120;9.730;2023-03-20T07:28:17;98415.84;;;6.46;87.01
19751;BME280;4663;49.120;9.730;2023-03-20T07:30:43;98423.97;;;6.64;86.82
19751;BME280;4663;49.120;9.730;2023-03-20T07:33:08;98427.34;;;6.66;85.46
19751;BME280;4663;49.120;9.730;2023-03-20T07:35:34;98428.97;;;6.77;85.61
19751;BME280;4663;49.120;9.730;2023-03-20T07:38:00;98431.22;;;6.26;85.32
19751;BME280;4663;49.120;9.730;2023-03-20T07:40:25;98431.94;;;6.46;86.47
19751;BME280;4663;49.120;9.730;2023-03-20T07:42:51;98420.66;;;6.52;86.90
19751;BME280;4663;49.120;9.730;2023-03-20T07:45:17;98421.75;;;6.32;87.39
19751;BME280;4663;49.120;9.730;2023-03-20T07:47:43;98423.88;;;6.56;86.62
19751;BME280;4663;49.120;9.730;2023-03-20T07:50:09;98413.31;;;6.55;85.49
19751;BME280;4663;49.120;9.730;2023-03-20T07:52:35;98410.31;;;6.58;85.41
19751;BME280;4663;49.120;9.730;2023-03-20T07:55:00;98419.03;;;6.88;85.78
19751;BME280;4663;49.120;9.730;2023-03-20T07:57:25;98407.34;;;6.79;84.67
19751;BME280;4663;49.120;9.730;2023-03-20T07:59:51;98408.66;;;7.11;84.22
19751;BME280;4663;49.120;9.730;2023-03-20T08:02:16;98402.50;;;7.19;83.41
19751;BME280;4663;49.120;9.730;2023-03-20T08:04:43;98412.03;;;7.32;83.09
19751;BME280;4663;49.120;9.730;2023-03-20T08:07:08;98406.66;;;7.32;82.64
19751;BME280;4663;49.120;9.730;2023-03-20T08:09:34;98418.00;;;7.43;82.86
19751;BME280;4663;49.120;9.730;2023-03-20T08:12:00;98413.63;;;7.42;82.40
19751;BME280;4663;49.120;9.730;2023-03-20T08:14:25;98414.56;;;7.15;82.83
19751;BME280;4663;49.120;9.730;2023-03-20T08:16:50;98428.69;;;7.17;83.28
19751;BME280;4663;49.120;9.730;2023-03-20T08:19:16;98411.34;;;7.29;82.38
19751;BME280;4663;49.120;9.730;2023-03-20T08:21:41;98423.81;;;7.39;82.00
19751;BME280;4663;49.120;9.730;2023-03-20T08:24:07;98424.44;;;7.51;81.01
19751;BME280;4663;49.120;9.730;2023-03-20T08:26:32;98429.25;;;7.65;81.37
19751;BME280;4663;49.120;9.730;2023-03-20T08:28:58;98423.22;;;7.45;80.18
19751;BME280;4663;49.120;9.730;2023-03-20T08:31:23;98427.31;;;7.57;81.34
19751;BME280;4663;49.120;9.730;2023-03-20T08:33:49;98428.44;;;7.47;81.91
19751;BME280;4663;49.120;9.730;2023-03-20T08:36:15;98426.72;;;7.64;81.33
19751;BME280;4663;49.120;9.730;2023-03-20T08:38:43;98421.91;;;7.49;80.34
19751;BME280;4663;49.120;9.730;2023-03-20T08:41:09;98430.25;;;7.46;81.38
19751;BME280;4663;49.120;9.730;2023-03-20T08:43:35;98435.84;;;7.71;81.30
19751;BME280;4663;49.120;9.730;2023-03-20T08:46:00;98435.38;;;7.57;81.00
19751;BME280;4663;49.120;9.730;2023-03-20T08:48:28;98430.22;;;7.64;80.61
19751;BME280;4663;49.120;9.730;2023-03-20T08:50:53;98432.97;;;7.73;79.31
19751;BME280;4663;49.120;9.730;2023-03-20T08:53:19;98445.34;;;7.84;80.85
19751;BME280;4663;49.120;9.730;2023-03-20T08:55:51;98436.34;;;7.48;79.31
19751;BME280;4663;49.120;9.730;2023-03-20T08:58:18;98440.88;;;7.74;80.24
19751;BME280;4663;49.120;9.730;2023-03-20T09:00:43;98444.00;;;7.79;79.84
19751;BME280;4663;49.120;9.730;2023-03-20T09:03:13;98446.63;;;7.98;79.42
19751;BME280;4663;49.120;9.730;2023-03-20T09:05:43;98447.06;;;8.19;80.68
19751;BME280;4663;49.120;9.730;2023-03-20T09:08:09;98437.00;;;8.22;79.19
19751;BME280;4663;49.120;9.730;2023-03-20T09:10:35;98433.53;;;8.38;79.61
19751;BME280;4663;49.120;9.730;2023-03-20T09:13:00;98430.81;;;8.38;77.44
19751;BME280;4663;49.120;9.730;2023-03-20T09:15:26;98428.88;;;8.48;77.61
19751;BME280;4663;49.120;9.730;2023-03-20T09:17:51;98437.31;;;8.70;78.45
19751;BME280;4663;49.120;9.730;2023-03-20T09:20:17;98440.41;;;8.40;78.46
19751;BME280;4663;49.120;9.730;2023-03-20T09:22:42;98440.22;;;8.77;78.35
19751;BME280;4663;49.120;9.730;2023-03-20T09:25:10;98438.59;;;8.41;77.49
19751;BME280;4663;49.120;9.730;2023-03-20T09:27:36;98440.81;;;8.54;76.86
19751;BME280;4663;49.120;9.730;2023-03-20T09:30:01;98438.00;;;8.64;76.98
19751;BME280;4663;49.120;9.730;2023-03-20T09:32:27;98449.81;;;8.71;78.59
19751;BME280;4663;49.120;9.730;2023-03-20T09:34:52;98437.66;;;8.58;75.86
19751;BME280;4663;49.120;9.730;2023-03-20T09:37:17;98441.94;;;8.35;76.36
19751;BME280;4663;49.120;9.730;2023-03-20T09:39:43;98439.34;;;8.59;77.01
19751;BME280;4663;49.120;9.730;2023-03-20T09:48:34;98454.34;;;8.70;76.59
19751;BME280;4663;49.120;9.730;2023-03-20T09:53:44;98455.53;;;8.76;77.77
19751;BME280;4663;49.120;9.730;2023-03-20T09:56:18;98435.00;;;8.67;75.47
19751;BME280;4663;49.120;9.730;2023-03-20T09:58:53;98443.34;;;9.07;77.03
19751;BME280;4663;49.120;9.730;2023-03-20T10:01:22;98436.13;;;9.16;74.70
19751;BME280;4663;49.120;9.730;2023-03-20T10:03:55;98431.72;;;8.98;75.33
19751;BME280;4663;49.120;9.730;2023-03-20T10:06:21;98445.75;;;8.67;77.43
19751;BME280;4663;49.120;9.730;2023-03-20T10:08:47;98433.50;;;8.72;75.14
19751;BME280;4663;49.120;9.730;2023-03-20T10:19:07;98442.91;;;8.77;75.93
19751;BME280;4663;49.120;9.730;2023-03-20T10:21:42;98439.41;;;8.84;74.23
19751;BME280;4663;49.120;9.730;2023-03-20T10:24:35;98437.44;;;8.52;74.84
19751;BME280;4663;49.120;9.730;2023-03-20T10:28:09;98443.13;;;8.92;73.87
19751;BME280;4663;49.120;9.730;2023-03-20T10:36:09;98448.94;;;9.39;74.57
19751;BME280;4663;49.120;9.730;2023-03-20T10:38:54;98452.44;;;9.22;74.08
19751;BME280;4663;49.120;9.730;2023-03-20T10:41:28;98449.91;;;9.21;75.27
19751;BME280;4663;49.120;9.730;2023-03-20T10:43:57;98454.66;;;9.35;73.98
19751;BME280;4663;49.120;9.730;2023-03-20T10:46:32;98449.09;;;9.29;75.47
19751;BME280;4663;49.120;9.730;2023-03-20T10:49:17;98437.13;;;9.06;73.51
19751;BME280;4663;49.120;9.730;2023-03-20T10:51:52;98432.97;;;8.77;73.26
19751;BME280;4663;49.120;9.730;2023-03-20T10:54:26;98434.75;;;9.03;74.67
19751;BME280;4663;49.120;9.730;2023-03-20T10:56:54;98440.16;;;9.20;75.45
19751;BME280;4663;49.120;9.730;2023-03-20T10:59:23;98436.44;;;9.29;73.73
19751;BME280;4663;49.120;9.730;2023-03-20T11:01:50;98432.75;;;9.39;72.96
19751;BME280;4663;49.120;9.730;2023-03-20T11:04:16;98442.50;;;9.73;73.95
19751;BME280;4663;49.120;9.730;2023-03-20T11:09:22;98438.28;;;9.79;74.85
19751;BME280;4663;49.120;9.730;2023-03-20T11:11:51;98417.50;;;10.12;71.27
19751;BME280;4663;49.120;9.730;2023-03-20T11:14:21;98416.44;;;9.32;72.10
19751;BME280;4663;49.120;9.730;2023-03-20T11:16:49;98422.25;;;9.94;71.48
19751;BME280;4663;49.120;9.730;2023-03-20T11:19:15;98422.25;;;10.82;71.26
19751;BME280;4663;49.120;9.730;2023-03-20T11:21:56;98420.44;;;10.43;69.47
19751;BME280;4663;49.120;9.730;2023-03-20T11:24:40;98431.41;;;11.04;71.69
19751;BME280;4663;49.120;9.730;2023-03-20T11:27:17;98404.78;;;10.70;68.05
19751;BME280;4663;49.120;9.730;2023-03-20T11:29:46;98422.47;;;10.72;70.12
19751;BME280;4663;49.120;9.730;2023-03-20T11:34:42;98426.34;;;10.78;69.37
19751;BME280;4663;49.120;9.730;2023-03-20T11:37:27;98426.94;;;10.17;69.82
19751;BME280;4663;49.120;9.730;2023-03-20T11:40:29;98429.53;;;9.77;70.90
19751;BME280;4663;49.120;9.730;2023-03-20T11:43:07;98417.94;;;9.34;72.00
19751;BME280;4663;49.120;9.730;2023-03-20T11:45:36;98431.22;;;9.78;73.29
19751;BME280;4663;49.120;9.730;2023-03-20T11:48:03;98431.16;;;10.59;73.70
19751;BME280;4663;49.120;9.730;2023-03-20T11:50:35;98421.41;;;10.50;70.80
19751;BME280;4663;49.120;9.730;2023-03-20T11:53:02;98411.88;;;9.66;70.49
19751;BME280;4663;49.120;9.730;2023-03-20T11:55:30;98425.66;;;9.21;73.23
19751;BME280;4663;49.120;9.730;2023-03-20T11:58:02;98431.06;;;9.29;74.78
19751;BME280;4663;49.120;9.730;2023-03-20T12:00:38;98421.63;;;9.75;73.15
19751;BME280;4663;49.120;9.730;2023-03-20T12:03:35;98413.44;;;10.17;71.53
19751;BME280;4663;49.120;9.730;2023-03-20T12:06:05;98414.31;;;10.09;72.38
19751;BME280;4663;49.120;9.730;2023-03-20T12:08:31;98407.84;;;10.26;71.59
19751;BME280;4663;49.120;9.730;2023-03-20T12:11:06;98415.06;;;9.53;72.25
19751;BME280;4663;49.120;9.730;2023-03-20T12:13:39;98414.91;;;9.38;72.64
19751;BME280;4663;49.120;9.730;2023-03-20T12:16:10;98404.44;;;9.09;72.14
19751;BME280;4663;49.120;9.730;2023-03-20T12:18:47;98405.31;;;9.27;72.26
19751;BME280;4663;49.120;9.730;2023-03-20T12:21:37;98397.75;;;9.22;72.37
19751;BME280;4663;49.120;9.730;2023-03-20T12:24:26;98393.63;;;8.84;73.15
19751;BME280;4663;49.120;9.730;2023-03-20T12:27:00;98382.75;;;9.11;72.84
19751;BME280;4663;49.120;9.730;2023-03-20T12:29:45;98383.88;;;8.92;72.57
19751;BME280;4663;49.120;9.730;2023-03-20T12:34:58;98384.53;;;9.69;72.02
19751;BME280;4663;49.120;9.730;2023-03-20T12:37:26;98386.28;;;9.36;71.08
19751;BME280;4663;49.120;9.730;2023-03-20T12:39:58;98372.97;;;9.10;71.33
19751;BME280;4663;49.120;9.730;2023-03-20T12:42:55;98390.66;;;9.46;72.83
19751;BME280;4663;49.120;9.730;2023-03-20T12:45:37;98369.66;;;10.06;70.64
19751;BME280;4663;49.120;9.730;2023-03-20T12:48:36;98366.22;;;10.21;69.69
19751;BME280;4663;49.120;9.730;2023-03-20T12:56:57;98377.78;;;10.70;70.46
19751;BME280;4663;49.120;9.730;2023-03-20T13:02:08;98369.31;;;10.09;68.44
19751;BME280;4663;49.120;9.730;2023-03-20T13:04:48;98376.97;;;10.61;68.35
19751;BME280;4663;49.120;9.730;2023-03-20T13:07:20;98372.97;;;10.80;67.09
19751;BME280;4663;49.120;9.730;2023-03-20T13:15:22;98366.69;;;10.88;66.62
19751;BME280;4663;49.120;9.730;2023-03-20T13:20:32;98345.19;;;10.95;65.48
19751;BME280;4663;49.120;9.730;2023-03-20T13:28:40;98330.69;;;11.19;62.76
19751;BME280;4663;49.120;9.730;2023-03-20T13:36:50;98333.94;;;11.14;63.80
19751;BME280;4663;49.120;9.730;2023-03-20T13:39:32;98335.25;;;10.95;64.28
19751;BME280;4663;49.120;9.730;2023-03-20T13:42:00;98342.94;;;11.45;65.35
19751;BME280;4663;49.120;9.730;2023-03-20T13:44:28;98343.25;;;11.65;64.45
19751;BME280;4663;49.120;9.730;2023-03-20T13:47:07;98328.78;;;11.73;63.62
19751;BME280;4663;49.120;9.730;2023-03-20T13:52:14;98334.28;;;11.80;63.69
19751;BME280;4663;49.120;9.730;2023-03-20T13:55:18;98307.50;;;11.70;61.74
19751;BME280;4663;49.120;9.730;2023-03-20T14:03:26;98318.91;;;10.01;63.18
19751;BME280;4663;49.120;9.730;2023-03-20T14:05:53;98332.97;;;10.29;66.21
19751;BME280;4663;49.120;9.730;2023-03-20T14:13:53;98307.56;;;10.93;63.79
19751;BME280;4663;49.120;9.730;2023-03-20T14:16:19;98304.75;;;10.86;62.22
19751;BME280;4663;49.120;9.730;2023-03-20T14:18:47;98300.19;;;10.00;63.86
19751;BME280;4663;49.120;9.730;2023-03-20T14:21:18;98279.00;;;10.29;62.80
19751;BME280;4663;49.120;9.730;2023-03-20T14:23:59;98305.00;;;10.76;64.28
19751;BME280;4663;49.120;9.730;2023-03-20T14:26:28;98317.91;;;11.28;65.17
19751;BME280;4663;49.120;9.730;2023-03-20T14:28:59;98299.94;;;10.73;63.13
19751;BME280;4663;49.120;9.730;2023-03-20T14:31:31;98309.09;;;10.72;64.41
19751;BME280;4663;49.120;9.730;2023-03-20T14:34:14;98304.56;;;10.64;64.82
19751;BME280;4663;49.120;9.730;2023-03-20T14:36:59;98315.66;;;11.16;65.05
19751;BME280;4663;49.120;9.730;2023-03-20T14:42:34;98297.31;;;10.42;63.44
19751;BME280;4663;49.120;9.730;2023-03-20T14:47:54;98300.72;;;10.35;65.02
19751;BME280;4663;49.120;9.730;2023-03-20T14:50:31;98287.91;;;10.29;63.88
19751;BME280;4663;49.120;9.730;2023-03-20T14:55:27;98297.16;;;10.03;65.50
19751;BME280;4663;49.120;9.730;2023-03-20T14:57:53;98285.34;;;10.04;65.02
19751;BME280;4663;49.120;9.730;2023-03-20T15:00:32;98306.03;;;10.20;66.83
19751;BME280;4663;49.120;9.730;2023-03-20T15:03:09;98287.44;;;10.25;64.33
19751;BME280;4663;49.120;9.730;2023-03-20T15:05:37;98283.53;;;9.96;64.94
19751;BME280;4663;49.120;9.730;2023-03-20T15:08:15;98287.78;;;10.22;65.17
19751;BME280;4663;49.120;9.730;2023-03-20T15:11:06;98297.16;;;10.35;66.12
19751;BME280;4663;49.120;9.730;2023-03-20T15:13:34;98285.78;;;10.48;65.50
19751;BME280;4663;49.120;9.730;2023-03-20T15:16:12;98283.50;;;10.36;65.97
19751;BME280;4663;49.120;9.730;2023-03-20T15:18:50;98267.69;;;9.93;64.31
19751;BME280;4663;49.120;9.730;2023-03-20T15:21:37;98259.09;;;9.98;63.80
19751;BME280;4663;49.120;9.730;2023-03-20T15:24:04;98281.94;;;10.19;65.75
19751;BME280;4663;49.120;9.730;2023-03-20T15:26:32;98264.47;;;9.98;65.01
19751;BME280;4663;49.120;9.730;2023-03-20T15:29:02;98278.31;;;9.95;66.42
19751;BME280;4663;49.120;9.730;2023-03-20T15:31:32;98266.72;;;10.26;65.30
19751;BME280;4663;49.120;9.730;2023-03-20T15:34:00;98264.63;;;10.05;65.22
19751;BME280;4663;49.120;9.730;2023-03-20T15:36:28;98281.53;;;10.30;66.88
19751;BME280;4663;49.120;9.730;2023-03-20T15:39:04;98268.38;;;10.27;66.32
19751;BME280;4663;49.120;9.730;2023-03-20T15:41:34;98259.03;;;10.15;64.61
19751;BME280;4663;49.120;9.730;2023-03-20T15:46:40;98268.16;;;10.13;64.62
19751;BME280;4663;49.120;9.730;2023-03-20T15:49:06;98284.50;;;9.64;66.03
19751;BME280;4663;49.120;9.730;2023-03-20T15:51:33;98285.75;;;9.84;67.87